Time;durP1;ratioP1;P1;durP2;ratioP2;P2;SDS_P1;SDS_P2;PMS_P1;PMS_P2;Temp;Humidity;BMP_temperature;BMP_pressure;BME280_temperature;BME280_humidity;BME280_pressure;Samples;Min_cycle;Max_cycle;Signal;HPM_P1;HPM_P2
2024/01/21 00:01:25;;;;;;;7.15;4.63;;;;;;;;;;5018990;28;20129;-70
2024/01/21 00:03:51;;;;;;;7.95;5.20;;;;;;;;;;5014615;28;20085;-70
2024/01/21 00:06:17;;;;;;;7.60;4.97;;;;;;;;;;5014337;28;20518;-70
2024/01/21 00:08:43;;;;;;;6.65;4.68;;;;;;;;;;5017664;28;20161;-70
2024/01/21 00:11:09;;;;;;;7.55;5.68;;;;;;;;;;5021242;28;20046;-70
2024/01/21 00:13:35;;;;;;;8.50;5.97;;;;;;;;;;5018949;28;20056;-66
2024/01/21 00:16:01;;;;;;;6.88;5.43;;;;;;;;;;5017111;28;20049;-65
2024/01/21 00:18:27;;;;;;;7.85;5.47;;;;;;;;;;5014465;28;20488;-65
2024/01/21 00:20:53;;;;;;;6.75;4.50;;;;;;;;;;5014628;28;20056;-65
2024/01/21 00:23:19;;;;;;;6.85;5.22;;;;;;;;;;5018693;28;20064;-65
2024/01/21 00:25:45;;;;;;;9.85;5.72;;;;;;;;;;5016503;28;20550;-65
2024/01/21 00:28:11;;;;;;;6.88;5.10;;;;;;;;;;5033189;28;20037;-65
2024/01/21 00:30:37;;;;;;;7.50;5.60;;;;;;;;;;5014715;28;20587;-65
2024/01/21 00:33:04;;;;;;;7.63;5.38;;;;;;;;;;5019821;28;20037;-66
2024/01/21 00:35:30;;;;;;;9.63;6.22;;;;;;;;;;5017446;28;20360;-66
2024/01/21 00:37:56;;;;;;;6.88;5.60;;;;;;;;;;5013545;28;20099;-65
2024/01/21 00:40:22;;;;;;;9.07;5.70;;;;;;;;;;5016783;28;20504;-65
2024/01/21 00:42:48;;;;;;;8.50;5.30;;;;;;;;;;5017533;28;20296;-66
2024/01/21 00:45:14;;;;;;;6.72;4.78;;;;;;;;;;5017235;28;20053;-65
2024/01/21 00:47:40;;;;;;;6.72;5.07;;;;;;;;;;5016265;28;20307;-66
2024/01/21 00:50:06;;;;;;;8.40;6.20;;;;;;;;;;5016834;28;20049;-65
2024/01/21 00:52:32;;;;;;;6.47;4.78;;;;;;;;;;5016142;28;20091;-66
2024/01/21 00:54:58;;;;;;;7.30;5.40;;;;;;;;;;5015432;28;20069;-66
2024/01/21 00:57:24;;;;;;;6.65;5.50;;;;;;;;;;5017179;28;20107;-66
2024/01/21 00:59:50;;;;;;;6.82;4.95;;;;;;;;;;5014747;28;20041;-66
2024/01/21 01:02:16;;;;;;;6.25;5.43;;;;;;;;;;5011664;28;20049;-65
2024/01/21 01:04:42;;;;;;;6.00;5.00;;;;;;;;;;5014504;28;20452;-65
2024/01/21 01:07:08;;;;;;;5.75;4.70;;;;;;;;;;5014831;28;20045;-65
2024/01/21 01:09:36;;;;;;;7.20;5.25;;;;;;;;;;5011268;28;20144;-65
2024/01/21 01:12:02;;;;;;;6.70;4.80;;;;;;;;;;5013816;28;20057;-66
2024/01/21 01:14:28;;;;;;;9.30;5.75;;;;;;;;;;5011879;28;20044;-66
2024/01/21 01:16:54;;;;;;;7.72;5.45;;;;;;;;;;5013616;28;20054;-65
2024/01/21 01:19:20;;;;;;;7.50;5.60;;;;;;;;;;5015523;28;20071;-66
2024/01/21 01:21:46;;;;;;;10.05;6.30;;;;;;;;;;5011414;28;20448;-66
2024/01/21 01:24:12;;;;;;;7.80;5.28;;;;;;;;;;5015652;28;20107;-65
2024/01/21 01:26:39;;;;;;;7.75;5.50;;;;;;;;;;5013994;28;20053;-65
2024/01/21 01:29:05;;;;;;;10.30;6.28;;;;;;;;;;5013861;28;20045;-65
2024/01/21 01:31:31;;;;;;;7.00;5.45;;;;;;;;;;5016065;28;20041;-66
2024/01/21 01:33:57;;;;;;;7.15;6.00;;;;;;;;;;5013931;28;20724;-66
2024/01/21 01:36:23;;;;;;;8.88;5.38;;;;;;;;;;5012296;28;20054;-66
2024/01/21 01:38:49;;;;;;;10.00;6.47;;;;;;;;;;5013399;28;20049;-66
2024/01/21 01:41:15;;;;;;;7.75;5.95;;;;;;;;;;5016237;28;20068;-65
2024/01/21 01:43:42;;;;;;;6.88;5.65;;;;;;;;;;5018598;28;20626;-65
2024/01/21 01:46:08;;;;;;;8.13;6.03;;;;;;;;;;5014985;28;20373;-66
2024/01/21 01:48:34;;;;;;;7.32;5.80;;;;;;;;;;5016232;28;20045;-66
2024/01/21 01:51:01;;;;;;;6.68;5.82;;;;;;;;;;5014499;28;20083;-66
2024/01/21 01:53:28;;;;;;;6.85;5.47;;;;;;;;;;5019713;28;20121;-66
2024/01/21 01:55:54;;;;;;;6.97;5.35;;;;;;;;;;5014196;28;20048;-66
2024/01/21 01:58:22;;;;;;;7.22;5.63;;;;;;;;;;5017582;28;20107;-66
2024/01/21 02:00:48;;;;;;;7.40;4.90;;;;;;;;;;5021206;28;20529;-65
2024/01/21 02:03:15;;;;;;;8.02;4.95;;;;;;;;;;5016804;28;20605;-66
2024/01/21 02:05:41;;;;;;;7.53;5.32;;;;;;;;;;5012994;28;20049;-66
2024/01/21 02:08:07;;;;;;;6.68;5.30;;;;;;;;;;5012499;28;20053;-65
2024/01/21 02:10:33;;;;;;;7.95;4.72;;;;;;;;;;5012085;28;20149;-66
2024/01/21 02:12:59;;;;;;;6.40;4.75;;;;;;;;;;5013365;28;20556;-65
2024/01/21 02:15:25;;;;;;;6.80;4.32;;;;;;;;;;5017801;28;20145;-66
2024/01/21 02:17:51;;;;;;;7.32;4.40;;;;;;;;;;5019726;28;20064;-66
2024/01/21 02:20:17;;;;;;;5.28;3.92;;;;;;;;;;5017291;28;20046;-65
2024/01/21 02:22:43;;;;;;;5.53;3.60;;;;;;;;;;5014274;28;20058;-66
2024/01/21 02:25:10;;;;;;;6.75;4.40;;;;;;;;;;5015819;28;20045;-66
2024/01/21 02:27:37;;;;;;;7.28;4.90;;;;;;;;;;5022393;28;20492;-66
2024/01/21 02:30:04;;;;;;;5.75;4.18;;;;;;;;;;5017646;28;20428;-65
2024/01/21 02:32:30;;;;;;;4.38;3.97;;;;;;;;;;5023649;28;20107;-66
2024/01/21 02:34:56;;;;;;;5.80;4.20;;;;;;;;;;5018297;28;20488;-65
2024/01/21 02:37:22;;;;;;;5.72;3.55;;;;;;;;;;5020960;28;20053;-65
2024/01/21 02:39:48;;;;;;;4.20;3.33;;;;;;;;;;5019958;28;20077;-65
2024/01/21 02:42:14;;;;;;;5.22;3.70;;;;;;;;;;5022279;28;20084;-66
2024/01/21 02:44:40;;;;;;;5.32;4.30;;;;;;;;;;5023182;28;20146;-65
2024/01/21 02:47:06;;;;;;;5.30;3.70;;;;;;;;;;5022724;28;20049;-66
2024/01/21 02:49:32;;;;;;;5.47;3.88;;;;;;;;;;5022073;28;20057;-66
2024/01/21 02:51:59;;;;;;;4.72;3.85;;;;;;;;;;5020399;28;20378;-66
2024/01/21 02:54:25;;;;;;;5.57;3.97;;;;;;;;;;5018497;28;20045;-66
2024/01/21 02:56:52;;;;;;;7.80;4.30;;;;;;;;;;5018549;28;20053;-65
2024/01/21 02:59:18;;;;;;;6.82;3.75;;;;;;;;;;5023292;28;20046;-65
2024/01/21 03:01:44;;;;;;;4.43;3.30;;;;;;;;;;5018529;28;20050;-66
2024/01/21 03:04:11;;;;;;;5.25;3.88;;;;;;;;;;5017241;28;20816;-66
2024/01/21 03:06:37;;;;;;;7.00;4.82;;;;;;;;;;5017815;28;20054;-65
2024/01/21 03:09:03;;;;;;;5.72;4.07;;;;;;;;;;5017191;28;20045;-67
2024/01/21 03:11:30;;;;;;;6.43;3.83;;;;;;;;;;5015067;28;20073;-66
2024/01/21 03:13:56;;;;;;;5.50;3.78;;;;;;;;;;5012436;28;20141;-66
2024/01/21 03:16:22;;;;;;;5.32;3.80;;;;;;;;;;5029304;28;20413;-66
2024/01/21 03:18:48;;;;;;;4.70;3.53;;;;;;;;;;5014983;28;20053;-66
2024/01/21 03:21:14;;;;;;;5.13;3.30;;;;;;;;;;5018926;28;20050;-65
2024/01/21 03:23:40;;;;;;;3.88;2.85;;;;;;;;;;5014057;28;20049;-66
2024/01/21 03:26:06;;;;;;;5.78;3.85;;;;;;;;;;5019173;28;20112;-65
2024/01/21 03:28:32;;;;;;;4.00;3.05;;;;;;;;;;5019133;28;20309;-66
2024/01/21 03:30:58;;;;;;;4.18;3.08;;;;;;;;;;5020598;28;20160;-66
2024/01/21 03:33:25;;;;;;;5.03;3.53;;;;;;;;;;5021119;28;20479;-66
2024/01/21 03:35:51;;;;;;;4.30;3.30;;;;;;;;;;5011915;28;20500;-66
2024/01/21 03:38:17;;;;;;;4.93;2.88;;;;;;;;;;5019380;28;20042;-65
2024/01/21 03:40:43;;;;;;;4.70;3.03;;;;;;;;;;5015983;28;20679;-65
2024/01/21 03:43:09;;;;;;;4.07;3.30;;;;;;;;;;5021738;28;20068;-66
2024/01/21 03:45:35;;;;;;;3.60;2.83;;;;;;;;;;5020472;28;20049;-66
2024/01/21 03:48:01;;;;;;;2.95;2.60;;;;;;;;;;5017484;28;20136;-66
2024/01/21 03:50:27;;;;;;;3.58;3.08;;;;;;;;;;5020827;28;20551;-66
2024/01/21 03:52:53;;;;;;;4.53;2.90;;;;;;;;;;5018045;28;20041;-66
2024/01/21 03:55:21;;;;;;;2.65;2.30;;;;;;;;;;5019643;28;20056;-66
2024/01/21 03:57:47;;;;;;;3.08;2.38;;;;;;;;;;5021643;28;20080;-66
2024/01/21 04:00:13;;;;;;;2.85;2.45;;;;;;;;;;5021800;28;20081;-66
2024/01/21 04:02:39;;;;;;;3.50;2.78;;;;;;;;;;5020870;28;20119;-65
2024/01/21 04:05:06;;;;;;;3.65;2.70;;;;;;;;;;5021504;28;20455;-65
2024/01/21 04:07:32;;;;;;;3.90;3.00;;;;;;;;;;5020969;28;20050;-66
2024/01/21 04:09:59;;;;;;;2.67;2.10;;;;;;;;;;5022110;28;20099;-66
2024/01/21 04:12:25;;;;;;;3.40;2.20;;;;;;;;;;5019731;28;20048;-66
2024/01/21 04:14:51;;;;;;;2.70;2.00;;;;;;;;;;5021389;28;20504;-66
2024/01/21 04:17:17;;;;;;;2.88;2.40;;;;;;;;;;5014954;28;20095;-65
2024/01/21 04:19:44;;;;;;;3.20;2.22;;;;;;;;;;5019249;28;20408;-66
2024/01/21 04:22:10;;;;;;;3.05;2.20;;;;;;;;;;5015608;28;20042;-65
2024/01/21 04:24:36;;;;;;;3.47;2.20;;;;;;;;;;5016991;28;20073;-66
2024/01/21 04:27:02;;;;;;;2.95;2.13;;;;;;;;;;5017528;28;20280;-66
2024/01/21 04:29:28;;;;;;;2.33;1.80;;;;;;;;;;5018373;28;20100;-66
2024/01/21 04:31:54;;;;;;;1.98;1.63;;;;;;;;;;5020312;28;20500;-66
2024/01/21 04:34:20;;;;;;;2.72;2.00;;;;;;;;;;5016541;28;20057;-66
2024/01/21 04:36:46;;;;;;;2.28;2.05;;;;;;;;;;5017172;28;20058;-66
2024/01/21 04:39:19;;;;;;;4.10;1.90;;;;;;;;;;5016108;28;20049;-66
2024/01/21 04:41:45;;;;;;;3.88;2.50;;;;;;;;;;5018160;28;20678;-66
2024/01/21 04:44:11;;;;;;;2.95;2.40;;;;;;;;;;5017479;28;20392;-66
2024/01/21 04:46:37;;;;;;;4.30;1.73;;;;;;;;;;5017142;28;20053;-65
2024/01/21 04:49:03;;;;;;;2.63;1.85;;;;;;;;;;5017193;28;20177;-65
2024/01/21 04:51:29;;;;;;;2.20;2.00;;;;;;;;;;5016126;28;20049;-66
2024/01/21 04:53:55;;;;;;;2.17;1.88;;;;;;;;;;5016342;28;20057;-66
2024/01/21 04:56:21;;;;;;;2.83;2.13;;;;;;;;;;5020746;28;20576;-65
2024/01/21 04:58:47;;;;;;;2.85;1.92;;;;;;;;;;5018441;28;20045;-66
2024/01/21 05:01:13;;;;;;;5.43;2.47;;;;;;;;;;5020005;28;20042;-66
2024/01/21 05:03:39;;;;;;;3.05;2.38;;;;;;;;;;5018173;28;20081;-66
2024/01/21 05:06:06;;;;;;;2.08;1.80;;;;;;;;;;5019139;28;20350;-66
2024/01/21 05:08:32;;;;;;;3.42;2.00;;;;;;;;;;5022648;28;20140;-66
2024/01/21 05:10:58;;;;;;;3.72;1.55;;;;;;;;;;5016717;28;20065;-65
2024/01/21 05:13:24;;;;;;;2.92;1.60;;;;;;;;;;5014415;28;20107;-66
2024/01/21 05:15:50;;;;;;;4.25;1.95;;;;;;;;;;5016985;28;20058;-66
2024/01/21 05:18:20;;;;;;;2.35;1.77;;;;;;;;;;5015947;28;20412;-66
2024/01/21 05:20:46;;;;;;;3.78;2.17;;;;;;;;;;5015208;28;20106;-66
2024/01/21 05:23:12;;;;;;;2.17;1.90;;;;;;;;;;5032082;28;20136;-66
2024/01/21 05:25:38;;;;;;;2.15;1.60;;;;;;;;;;5018676;28;20503;-66
2024/01/21 05:28:05;;;;;;;2.33;1.80;;;;;;;;;;5010766;28;20053;-66
2024/01/21 05:30:31;;;;;;;2.70;1.98;;;;;;;;;;5013081;28;20073;-66
2024/01/21 05:32:57;;;;;;;2.47;2.00;;;;;;;;;;5015505;28;20487;-65
2024/01/21 05:35:23;;;;;;;3.38;1.98;;;;;;;;;;5015147;28;20120;-66
2024/01/21 05:37:49;;;;;;;1.90;1.60;;;;;;;;;;5012011;28;20049;-66
2024/01/21 05:40:15;;;;;;;2.47;2.10;;;;;;;;;;5012179;28;20057;-66
2024/01/21 05:42:41;;;;;;;3.13;2.15;;;;;;;;;;5017843;28;20601;-66
2024/01/21 05:45:07;;;;;;;2.97;1.80;;;;;;;;;;5016769;28;20088;-66
2024/01/21 05:47:33;;;;;;;3.90;2.70;;;;;;;;;;5017885;28;20499;-65
2024/01/21 05:50:00;;;;;;;3.25;2.35;;;;;;;;;;5016330;28;20128;-66
2024/01/21 05:52:26;;;;;;;2.15;1.60;;;;;;;;;;5020006;28;20053;-66
2024/01/21 05:54:52;;;;;;;3.13;2.63;;;;;;;;;;5017033;28;20119;-66
2024/01/21 05:57:18;;;;;;;2.72;1.98;;;;;;;;;;5015958;28;20045;-66
2024/01/21 05:59:44;;;;;;;3.28;2.10;;;;;;;;;;5018516;28;20049;-66
2024/01/21 06:02:10;;;;;;;2.85;1.95;;;;;;;;;;5022651;28;20599;-66
2024/01/21 06:04:37;;;;;;;2.45;2.03;;;;;;;;;;5018396;28;20052;-66
2024/01/21 06:07:03;;;;;;;3.50;2.42;;;;;;;;;;5021964;28;20232;-66
2024/01/21 06:09:29;;;;;;;2.75;2.00;;;;;;;;;;5020011;28;20107;-66
2024/01/21 06:11:55;;;;;;;3.78;2.28;;;;;;;;;;5021092;28;20095;-66
2024/01/21 06:14:21;;;;;;;4.68;2.95;;;;;;;;;;5016323;28;20089;-65
2024/01/21 06:16:47;;;;;;;3.30;1.73;;;;;;;;;;5022194;28;20130;-66
2024/01/21 06:19:13;;;;;;;3.53;2.70;;;;;;;;;;5022098;28;20103;-65
2024/01/21 06:21:46;;;;;;;3.30;2.30;;;;;;;;;;5021183;28;20424;-66
2024/01/21 06:24:12;;;;;;;3.50;2.38;;;;;;;;;;5016640;28;20049;-66
2024/01/21 06:26:40;;;;;;;2.58;2.10;;;;;;;;;;5020718;28;20050;-66
2024/01/21 06:29:06;;;;;;;3.40;2.45;;;;;;;;;;5015974;28;20052;-66
2024/01/21 06:31:32;;;;;;;3.38;2.30;;;;;;;;;;5017936;28;20111;-66
2024/01/21 06:33:58;;;;;;;2.80;2.20;;;;;;;;;;5018575;28;20096;-66
2024/01/21 06:36:25;;;;;;;4.30;2.58;;;;;;;;;;5018585;28;20089;-66
2024/01/21 06:38:51;;;;;;;3.13;2.03;;;;;;;;;;5020200;28;20056;-65
2024/01/21 06:41:17;;;;;;;7.05;2.95;;;;;;;;;;5017975;28;20048;-66
2024/01/21 06:43:43;;;;;;;4.30;2.67;;;;;;;;;;5016590;28;20053;-65
2024/01/21 06:46:09;;;;;;;4.38;2.85;;;;;;;;;;5017662;28;20056;-65
2024/01/21 06:48:36;;;;;;;3.25;2.17;;;;;;;;;;5014338;28;20076;-65
2024/01/21 06:51:09;;;;;;;3.90;2.75;;;;;;;;;;5018890;28;20053;-65
2024/01/21 06:53:35;;;;;;;2.65;2.20;;;;;;;;;;5024433;28;20061;-65
2024/01/21 06:56:06;;;;;;;4.13;3.03;;;;;;;;;;5017537;28;20045;-66
2024/01/21 06:58:33;;;;;;;4.13;3.00;;;;;;;;;;5021227;28;20060;-66
2024/01/21 07:00:59;;;;;;;6.97;2.92;;;;;;;;;;5022806;28;20100;-66
2024/01/21 07:03:25;;;;;;;4.88;2.50;;;;;;;;;;5022726;28;20046;-66
2024/01/21 07:05:51;;;;;;;3.63;2.38;;;;;;;;;;5022233;28;20599;-65
2024/01/21 07:08:18;;;;;;;3.85;2.80;;;;;;;;;;5019662;28;20081;-66
2024/01/21 07:10:44;;;;;;;4.32;2.70;;;;;;;;;;5021031;28;20100;-66
2024/01/21 07:13:10;;;;;;;3.35;2.78;;;;;;;;;;5018710;28;20041;-66
2024/01/21 07:15:36;;;;;;;3.28;2.65;;;;;;;;;;5019475;28;20865;-66
2024/01/21 07:18:03;;;;;;;5.55;3.80;;;;;;;;;;5018759;28;20245;-65
2024/01/21 07:20:29;;;;;;;3.58;2.90;;;;;;;;;;5017446;28;20073;-65
2024/01/21 07:22:56;;;;;;;6.22;3.70;;;;;;;;;;5017959;28;20057;-66
2024/01/21 07:25:22;;;;;;;5.32;3.63;;;;;;;;;;5018346;28;20053;-66
2024/01/21 07:27:48;;;;;;;3.72;3.15;;;;;;;;;;5018377;28;20053;-66
2024/01/21 07:30:14;;;;;;;4.60;3.00;;;;;;;;;;5021807;28;20052;-66
2024/01/21 07:32:41;;;;;;;5.38;3.00;;;;;;;;;;5016807;28;20050;-66
2024/01/21 07:35:11;;;;;;;5.05;3.45;;;;;;;;;;5016160;28;20054;-66
2024/01/21 07:37:37;;;;;;;3.97;3.13;;;;;;;;;;5015172;28;20060;-66
2024/01/21 07:40:06;;;;;;;5.40;3.80;;;;;;;;;;5020257;28;20088;-66
2024/01/21 07:42:33;;;;;;;2.97;2.65;;;;;;;;;;5021401;28;20060;-65
2024/01/21 07:44:59;;;;;;;4.38;3.25;;;;;;;;;;5012822;28;20135;-65
2024/01/21 07:47:25;;;;;;;4.18;3.55;;;;;;;;;;5018474;28;20037;-66
2024/01/21 07:49:51;;;;;;;6.68;3.85;;;;;;;;;;5016082;28;20041;-66
2024/01/21 07:52:17;;;;;;;5.45;3.30;;;;;;;;;;5021589;28;20069;-65
2024/01/21 07:54:44;;;;;;;4.47;3.75;;;;;;;;;;5017246;28;20052;-66
2024/01/21 07:57:10;;;;;;;4.85;3.22;;;;;;;;;;5020523;28;20053;-66
2024/01/21 07:59:36;;;;;;;4.18;3.30;;;;;;;;;;5017330;28;20050;-65
2024/01/21 08:02:02;;;;;;;5.25;4.07;;;;;;;;;;5018124;28;20124;-66
2024/01/21 08:04:28;;;;;;;5.22;3.45;;;;;;;;;;5020481;28;20136;-66
2024/01/21 08:06:54;;;;;;;5.47;3.70;;;;;;;;;;5017887;28;20083;-65
2024/01/21 08:09:21;;;;;;;4.63;3.00;;;;;;;;;;5020195;28;20049;-65
2024/01/21 08:11:47;;;;;;;5.22;3.67;;;;;;;;;;5017537;28;20130;-66
2024/01/21 08:14:13;;;;;;;4.32;3.42;;;;;;;;;;5020522;28;20033;-66
2024/01/21 08:16:39;;;;;;;5.22;3.45;;;;;;;;;;5018378;28;20659;-65
2024/01/21 08:19:05;;;;;;;5.00;3.63;;;;;;;;;;5022714;28;20055;-66
2024/01/21 08:21:31;;;;;;;4.28;3.17;;;;;;;;;;5020947;28;20153;-66
2024/01/21 08:23:57;;;;;;;4.00;3.53;;;;;;;;;;5015933;28;20053;-65
2024/01/21 08:26:23;;;;;;;4.15;3.50;;;;;;;;;;5014280;28;20053;-66
2024/01/21 08:28:49;;;;;;;4.95;3.17;;;;;;;;;;5015004;28;20128;-66
2024/01/21 08:31:16;;;;;;;5.35;3.45;;;;;;;;;;5015491;28;20131;-66
2024/01/21 08:33:42;;;;;;;5.43;3.60;;;;;;;;;;5014918;28;20049;-65
2024/01/21 08:36:08;;;;;;;4.30;3.58;;;;;;;;;;5016419;28;20064;-66
2024/01/21 08:38:34;;;;;;;5.45;3.55;;;;;;;;;;5019300;28;20057;-66
2024/01/21 08:41:00;;;;;;;6.03;3.40;;;;;;;;;;5017550;28;20049;-66
2024/01/21 08:43:26;;;;;;;5.60;3.63;;;;;;;;;;5018179;28;20045;-66
2024/01/21 08:45:52;;;;;;;3.55;3.20;;;;;;;;;;5017144;28;20056;-65
2024/01/21 08:48:18;;;;;;;5.35;4.03;;;;;;;;;;5018469;28;20531;-66
2024/01/21 08:50:44;;;;;;;7.35;4.13;;;;;;;;;;5015288;28;20089;-65
2024/01/21 08:53:10;;;;;;;5.75;3.90;;;;;;;;;;5015442;28;20378;-66
2024/01/21 08:55:36;;;;;;;5.60;4.10;;;;;;;;;;5020297;28;20053;-66
2024/01/21 08:58:02;;;;;;;5.05;3.65;;;;;;;;;;5015446;28;20057;-66
2024/01/21 09:00:29;;;;;;;6.05;4.65;;;;;;;;;;5021176;28;20049;-65
2024/01/21 09:02:55;;;;;;;4.22;3.45;;;;;;;;;;5011318;28;20129;-66
2024/01/21 09:05:21;;;;;;;5.05;3.65;;;;;;;;;;5016309;28;20587;-66
2024/01/21 09:07:47;;;;;;;6.95;4.13;;;;;;;;;;5020124;28;20207;-66
2024/01/21 09:10:14;;;;;;;5.30;4.03;;;;;;;;;;5014464;28;20408;-67
2024/01/21 09:12:40;;;;;;;6.47;4.35;;;;;;;;;;5015314;28;20125;-66
2024/01/21 09:15:06;;;;;;;7.68;5.03;;;;;;;;;;5019723;28;20270;-66
2024/01/21 09:17:32;;;;;;;4.35;3.95;;;;;;;;;;5018724;28;20132;-65
2024/01/21 09:19:58;;;;;;;5.70;4.35;;;;;;;;;;5017530;28;20172;-67
2024/01/21 09:22:25;;;;;;;5.30;4.10;;;;;;;;;;5018788;28;20048;-68
2024/01/21 09:24:51;;;;;;;4.65;3.75;;;;;;;;;;5016985;28;20063;-78
2024/01/21 09:27:17;;;;;;;6.18;4.65;;;;;;;;;;5016046;28;20052;-75
2024/01/21 09:29:43;;;;;;;5.68;3.70;;;;;;;;;;5021393;28;20053;-75
2024/01/21 09:32:13;;;;;;;6.10;4.00;;;;;;;;;;5015117;28;20037;-75
2024/01/21 09:34:43;;;;;;;6.15;4.38;;;;;;;;;;5022515;28;20492;-76
2024/01/21 09:37:09;;;;;;;6.57;4.53;;;;;;;;;;5021529;28;20045;-75
2024/01/21 09:39:37;;;;;;;5.78;4.13;;;;;;;;;;5015815;28;20637;-78
2024/01/21 09:42:05;;;;;;;5.07;4.38;;;;;;;;;;5015270;28;20513;-76
2024/01/21 09:44:31;;;;;;;4.97;4.03;;;;;;;;;;5020039;28;20041;-78
2024/01/21 09:46:57;;;;;;;6.65;5.28;;;;;;;;;;5022133;28;20056;-75
2024/01/21 09:49:24;;;;;;;7.68;4.60;;;;;;;;;;5020173;28;20068;-74
2024/01/21 09:51:51;;;;;;;6.78;5.05;;;;;;;;;;5015383;28;20128;-78
2024/01/21 09:54:17;;;;;;;5.15;4.10;;;;;;;;;;5013932;28;20057;-77
2024/01/21 09:56:43;;;;;;;7.07;4.95;;;;;;;;;;5020545;28;20050;-75
2024/01/21 09:59:10;;;;;;;5.63;4.80;;;;;;;;;;5019832;28;20043;-75
2024/01/21 10:01:37;;;;;;;6.25;4.68;;;;;;;;;;5017124;28;20056;-74
2024/01/21 10:04:03;;;;;;;6.95;4.38;;;;;;;;;;5018915;28;20707;-73
2024/01/21 10:06:29;;;;;;;6.20;4.82;;;;;;;;;;5021352;28;20149;-73
2024/01/21 10:09:11;;;;;;;5.60;4.65;;;;;;;;;;5018030;28;20053;-72
2024/01/21 10:11:38;;;;;;;5.30;4.53;;;;;;;;;;5021560;28;20049;-73
2024/01/21 10:14:04;;;;;;;5.80;4.88;;;;;;;;;;5021686;28;20053;-76
2024/01/21 10:16:30;;;;;;;6.00;4.32;;;;;;;;;;5021435;28;20049;-74
2024/01/21 10:18:56;;;;;;;6.00;4.78;;;;;;;;;;5018831;28;20049;-74
2024/01/21 10:21:22;;;;;;;5.40;4.57;;;;;;;;;;5020941;28;20042;-73
2024/01/21 10:23:49;;;;;;;6.30;5.22;;;;;;;;;;5013960;28;20693;-67
2024/01/21 10:26:15;;;;;;;7.88;5.32;;;;;;;;;;5015505;28;20124;-75
2024/01/21 10:28:41;;;;;;;8.18;5.63;;;;;;;;;;5013912;28;20424;-77
2024/01/21 10:31:08;;;;;;;5.22;4.72;;;;;;;;;;5020997;28;20050;-77
2024/01/21 10:33:34;;;;;;;7.70;5.13;;;;;;;;;;5017045;28;20041;-78
2024/01/21 10:36:03;;;;;;;8.13;5.95;;;;;;;;;;5024189;28;20049;-77
2024/01/21 10:38:29;;;;;;;7.55;5.22;;;;;;;;;;5020496;28;20084;-77
2024/01/21 10:40:56;;;;;;;8.02;5.80;;;;;;;;;;5027194;28;20060;-77
2024/01/21 10:43:22;;;;;;;7.10;4.80;;;;;;;;;;5016380;28;20045;-77
2024/01/21 10:45:49;;;;;;;7.28;5.50;;;;;;;;;;5016996;28;20045;-78
2024/01/21 10:48:15;;;;;;;7.70;5.55;;;;;;;;;;5025311;28;20053;-78
2024/01/21 10:50:42;;;;;;;6.75;5.53;;;;;;;;;;5019213;28;20072;-77
2024/01/21 10:53:12;;;;;;;8.27;5.88;;;;;;;;;;5022565;28;20401;-78
2024/01/21 10:55:41;;;;;;;8.23;5.50;;;;;;;;;;5024110;28;20483;-76
2024/01/21 10:58:08;;;;;;;7.95;5.80;;;;;;;;;;5014321;28;20092;-78
2024/01/21 11:00:35;;;;;;;7.47;5.85;;;;;;;;;;5014268;28;20562;-77
2024/01/21 11:03:20;;;;;;;6.65;5.00;;;;;;;;;;5022043;28;20053;-77
2024/01/21 11:05:47;;;;;;;8.75;6.43;;;;;;;;;;5018504;28;20052;-77
2024/01/21 11:08:14;;;;;;;8.00;4.93;;;;;;;;;;5018959;28;20050;-77
2024/01/21 11:10:40;;;;;;;9.95;6.35;;;;;;;;;;5019623;28;20054;-78
2024/01/21 11:13:07;;;;;;;7.00;5.43;;;;;;;;;;5022330;28;20095;-78
2024/01/21 11:15:33;;;;;;;7.82;5.68;;;;;;;;;;5018935;28;20054;-79
2024/01/21 11:18:08;;;;;;;7.15;5.80;;;;;;;;;;5017182;28;20061;-80
2024/01/21 11:20:34;;;;;;;9.73;6.53;;;;;;;;;;5013883;28;20049;-79
2024/01/21 11:23:00;;;;;;;7.53;5.60;;;;;;;;;;5019800;28;20055;-79
2024/01/21 11:25:33;;;;;;;8.23;6.00;;;;;;;;;;5021496;28;20155;-79
2024/01/21 11:28:03;;;;;;;6.85;6.15;;;;;;;;;;5016263;28;20037;-79
2024/01/21 11:30:29;;;;;;;7.20;5.72;;;;;;;;;;5021395;28;20515;-79
2024/01/21 11:33:01;;;;;;;7.05;5.22;;;;;;;;;;5013825;28;20053;-80
2024/01/21 11:35:28;;;;;;;6.55;4.90;;;;;;;;;;5014958;28;20385;-79
2024/01/21 11:37:54;;;;;;;8.05;5.57;;;;;;;;;;5019076;28;20049;-79
2024/01/21 11:40:21;;;;;;;7.72;5.90;;;;;;;;;;5016690;28;20200;-79
2024/01/21 11:42:50;;;;;;;7.90;5.35;;;;;;;;;;5010496;28;20046;-79
2024/01/21 11:45:16;;;;;;;7.85;5.82;;;;;;;;;;5019935;28;20038;-83
2024/01/21 11:47:42;;;;;;;12.13;7.38;;;;;;;;;;5018950;28;20041;-80
2024/01/21 11:50:09;;;;;;;6.80;5.88;;;;;;;;;;5022168;28;20055;-77
2024/01/21 11:52:39;;;;;;;7.20;5.25;;;;;;;;;;5018221;28;20462;-75
2024/01/21 11:55:05;;;;;;;6.15;5.45;;;;;;;;;;5021300;28;20053;-77
2024/01/21 11:57:31;;;;;;;9.57;5.78;;;;;;;;;;5031856;28;20053;-77
2024/01/21 11:59:57;;;;;;;8.45;5.22;;;;;;;;;;5018958;28;20049;-77
2024/01/21 12:02:24;;;;;;;10.18;6.07;;;;;;;;;;5020048;28;20049;-76
2024/01/21 12:04:51;;;;;;;7.40;5.85;;;;;;;;;;5019080;28;20118;-75
2024/01/21 12:07:17;;;;;;;6.63;5.47;;;;;;;;;;5018698;28;20056;-79
2024/01/21 12:09:43;;;;;;;8.30;5.90;;;;;;;;;;5019430;28;20041;-77
2024/01/21 12:12:09;;;;;;;6.50;5.18;;;;;;;;;;5018967;28;20373;-78
2024/01/21 12:14:37;;;;;;;6.32;4.97;;;;;;;;;;5019761;28;20061;-78
2024/01/21 12:17:03;;;;;;;6.13;4.82;;;;;;;;;;5020369;28;20123;-74
2024/01/21 12:19:29;;;;;;;8.45;6.57;;;;;;;;;;5013896;28;20052;-77
2024/01/21 12:21:55;;;;;;;8.45;6.15;;;;;;;;;;5022424;28;20044;-77
2024/01/21 12:24:22;;;;;;;12.07;6.40;;;;;;;;;;5015005;28;20058;-77
2024/01/21 12:26:48;;;;;;;8.43;6.43;;;;;;;;;;5016830;28;20092;-79
2024/01/21 12:29:14;;;;;;;7.68;5.28;;;;;;;;;;5019728;28;20374;-77
2024/01/21 12:31:41;;;;;;;7.88;6.22;;;;;;;;;;5020427;28;20063;-76
2024/01/21 12:34:11;;;;;;;9.73;6.50;;;;;;;;;;5015182;28;20108;-77
2024/01/21 12:36:41;;;;;;;9.93;6.20;;;;;;;;;;5018446;28;20060;-75
2024/01/21 12:39:09;;;;;;;9.02;6.20;;;;;;;;;;5012612;28;20049;-76
2024/01/21 12:41:36;;;;;;;10.77;6.63;;;;;;;;;;5018553;28;20049;-76
2024/01/21 12:44:02;;;;;;;7.50;5.63;;;;;;;;;;5015621;28;20079;-76
2024/01/21 12:46:29;;;;;;;12.07;7.78;;;;;;;;;;5015813;28;20117;-76
2024/01/21 12:48:55;;;;;;;8.93;6.38;;;;;;;;;;5013367;28;20473;-77
2024/01/21 12:51:22;;;;;;;8.85;7.38;;;;;;;;;;5017976;28;20585;-76
2024/01/21 12:53:49;;;;;;;8.90;7.03;;;;;;;;;;5016985;28;20140;-76
2024/01/21 12:56:15;;;;;;;9.95;6.47;;;;;;;;;;5018756;28;20288;-76
2024/01/21 12:58:42;;;;;;;8.73;6.68;;;;;;;;;;5022972;28;20080;-81
2024/01/21 13:01:09;;;;;;;7.45;6.20;;;;;;;;;;5020958;28;20045;-79
2024/01/21 13:03:36;;;;;;;8.05;6.43;;;;;;;;;;5015550;28;20057;-78
2024/01/21 13:06:06;;;;;;;10.43;7.38;;;;;;;;;;5020846;28;20052;-77
2024/01/21 13:08:32;;;;;;;11.10;7.95;;;;;;;;;;5015980;28;20400;-78
2024/01/21 13:10:59;;;;;;;14.63;8.13;;;;;;;;;;5019204;28;20177;-78
2024/01/21 13:13:25;;;;;;;8.77;6.82;;;;;;;;;;5019430;28;20081;-78
2024/01/21 13:15:51;;;;;;;7.10;6.40;;;;;;;;;;5015093;28;20059;-78
2024/01/21 13:18:17;;;;;;;8.75;6.65;;;;;;;;;;5018519;28;20139;-77
2024/01/21 13:20:43;;;;;;;12.02;7.00;;;;;;;;;;5015017;28;20268;-79
2024/01/21 13:23:09;;;;;;;9.48;7.53;;;;;;;;;;5011471;28;20045;-78
2024/01/21 13:25:36;;;;;;;11.52;7.50;;;;;;;;;;4997270;28;20161;-77
2024/01/21 13:28:17;;;;;;;7.55;6.43;;;;;;;;;;5001724;28;20041;-77
2024/01/21 13:30:43;;;;;;;9.00;6.28;;;;;;;;;;5001063;28;20042;-78
2024/01/21 13:33:10;;;;;;;11.63;7.03;;;;;;;;;;4997395;28;20053;-77
2024/01/21 13:35:36;;;;;;;12.05;8.20;;;;;;;;;;4980917;28;20504;-79
2024/01/21 13:38:04;;;;;;;9.70;7.85;;;;;;;;;;4998230;28;20076;-78
2024/01/21 13:40:30;;;;;;;12.70;7.10;;;;;;;;;;5000161;28;20124;-78
2024/01/21 13:42:56;;;;;;;12.07;7.90;;;;;;;;;;4998961;28;20137;-77
2024/01/21 13:45:23;;;;;;;11.70;7.82;;;;;;;;;;4979525;28;20439;-78
2024/01/21 13:47:49;;;;;;;11.52;7.03;;;;;;;;;;4995552;28;20052;-78
2024/01/21 13:50:15;;;;;;;10.70;6.82;;;;;;;;;;4991761;28;20046;-77
2024/01/21 13:52:41;;;;;;;9.07;7.00;;;;;;;;;;4983068;28;20050;-77
2024/01/21 13:55:08;;;;;;;10.32;7.63;;;;;;;;;;4974507;28;20477;-79
2024/01/21 13:57:34;;;;;;;15.43;8.98;;;;;;;;;;4998550;28;20073;-76
2024/01/21 14:00:00;;;;;;;14.43;8.02;;;;;;;;;;4995378;28;20054;-78
2024/01/21 14:02:27;;;;;;;9.30;7.32;;;;;;;;;;4980740;28;20093;-78
2024/01/21 14:04:53;;;;;;;10.07;7.32;;;;;;;;;;4980961;28;20056;-78
2024/01/21 14:07:19;;;;;;;10.75;7.53;;;;;;;;;;4998978;28;20090;-76
2024/01/21 14:09:45;;;;;;;12.80;8.07;;;;;;;;;;4991079;28;20049;-77
2024/01/21 14:12:14;;;;;;;11.98;8.38;;;;;;;;;;5005389;28;20237;-78
2024/01/21 14:14:40;;;;;;;12.93;7.85;;;;;;;;;;4989071;28;20050;-79
2024/01/21 14:17:06;;;;;;;14.38;8.13;;;;;;;;;;4985367;28;20496;-79
2024/01/21 14:19:32;;;;;;;15.60;7.85;;;;;;;;;;5000632;28;20053;-77
2024/01/21 14:21:59;;;;;;;10.77;7.60;;;;;;;;;;5014868;28;20072;-80
2024/01/21 14:24:29;;;;;;;12.50;7.75;;;;;;;;;;5016893;28;20045;-77
2024/01/21 14:26:55;;;;;;;12.27;7.75;;;;;;;;;;5026690;28;21429;-80
2024/01/21 14:29:26;;;;;;;12.95;7.28;;;;;;;;;;5025062;28;20129;-81
2024/01/21 14:31:52;;;;;;;10.30;7.65;;;;;;;;;;5025450;28;20137;-83
2024/01/21 14:34:18;;;;;;;12.32;8.13;;;;;;;;;;5025710;28;20102;-77
2024/01/21 14:36:44;;;;;;;10.45;7.07;;;;;;;;;;5016030;28;20689;-71